Ekwok, AK (99580)

1:19 PM AKST on February 11, 2016 (GMT -0900)
New Stuyahok AP, New Stuyahok | | Change Station
CLOSE
Current Station
Airport
Location: New Stuyahok AP, New Stuyahok,
Elevation: 302 ft
Nearby Weather Stations

Elev 302 ft 59.45 °N, 157.33 °W | Updated 23 minutes ago

Partly Cloudy
Partly Cloudy
20 °F
Feels Like 7 °F
N
14
Wind Variable Wind from North
Gusts 23 mph

Today
High -- | Low -- °F
--% Chance of Precip.
Yesterday
High -- | Low -- °F
Precip. -- in
Pressure 29.48 in
Visibility 10.0 miles
Clouds Few 4700 ft
Windchill 7 °F
Dew Point 15 °F
Humidity 81%
Rainfall 0.00 in
Snow Depth Not available.
9:17 AM 6:13 PM
Waxing Crescent, 15% visible
METAR PANW 112156Z AUTO 01012G20KT 10SM FEW047 M07/M09 A2943 RMK AO2 SLP982 T10671094 FZRANO
Pressure 29.48 in
Visibility 10.0 miles
Clouds Few 4700 ft
Windchill 7 °F
Dew Point 15 °F
Humidity 81%
Rainfall 0.00 in
Snow Depth Not available.
9:17 AM 6:13 PM
Waxing Crescent, 15% visible
METAR PANW 112156Z AUTO 01012G20KT 10SM FEW047 M07/M09 A2943 RMK AO2 SLP982 T10671094 FZRANO

10-Day Weather Forecast

Almanac

Astronomy

Feb. 11, 2016 Rise Set
Actual Time
Civil Twilight
Nautical Twilight
Astronomical Twilight
Moon
Length of Visible Light
Length of Day
Tomorrow will be .
, % of the Moon is Illuminated

Today's Extremes

State Highs State Lows

Community

WunderPhotos

Upload Photos

1,892,171 photos uploaded!

WunderBlog® & News

Nearby

Air Quality

  Air Quality AQ Index Pollutant
Not available.

Snow Depth

Station Depth Elevation

Earthquake Activity

City Distance Mag. Time & Date
Minimum magnitude displayed is 2.5.

Coastal Water Temperatures

Place Temperature

Stations

Nearby Weather Stations

Station Location Temp. Windchill Dew Point Humidity Wind Precip. Elev Updated Type
                   

Watches & Warnings

There are currently no watches in effect.